createdAt,value
2023-04-30T00:00:52.934Z,6.80
2023-04-30T00:01:52.989Z,7.30
2023-04-30T00:02:53.023Z,6.50
2023-04-30T00:03:53.002Z,7.30
2023-04-30T00:04:52.900Z,7.00
2023-04-30T00:05:52.901Z,7.80
2023-04-30T00:06:52.876Z,8.60
2023-04-30T00:07:52.900Z,7.50
2023-04-30T00:08:52.855Z,6.20
2023-04-30T00:09:53.166Z,8.30
2023-04-30T00:10:52.840Z,7.90
2023-04-30T00:11:52.832Z,7.40
2023-04-30T00:12:52.816Z,6.30
2023-04-30T00:13:52.808Z,6.70
2023-04-30T00:14:52.781Z,8.60
2023-04-30T00:15:52.829Z,6.60
2023-04-30T00:16:52.759Z,7.20
2023-04-30T00:17:52.871Z,7.70
2023-04-30T00:18:52.759Z,11.10
2023-04-30T00:19:53.126Z,6.80
2023-04-30T00:20:52.722Z,7.80
2023-04-30T00:21:52.744Z,9.10
2023-04-30T00:22:52.716Z,7.60
2023-04-30T00:23:52.710Z,7.50
2023-04-30T00:24:52.704Z,7.70
2023-04-30T00:25:52.718Z,7.70
2023-04-30T00:26:52.655Z,7.90
2023-04-30T00:27:52.678Z,8.50
2023-04-30T00:28:52.683Z,8.10
2023-04-30T00:29:52.841Z,7.60
2023-04-30T00:30:52.625Z,7.70
2023-04-30T00:31:52.633Z,8.50
2023-04-30T00:32:52.676Z,9.90
2023-04-30T00:33:52.641Z,7.90
2023-04-30T00:34:52.564Z,7.70
2023-04-30T00:35:52.596Z,8.70
2023-04-30T00:36:52.549Z,7.80
2023-04-30T00:37:52.551Z,8.70
2023-04-30T00:38:52.522Z,8.10
2023-04-30T00:39:53.059Z,7.30
2023-04-30T00:40:52.505Z,8.70
2023-04-30T00:41:52.519Z,7.40
2023-04-30T00:42:52.471Z,9.20
2023-04-30T00:43:52.478Z,7.60
2023-04-30T00:44:52.462Z,7.30
2023-04-30T00:45:52.508Z,7.70
2023-04-30T00:46:52.434Z,8.00
2023-04-30T00:47:52.482Z,11.50
2023-04-30T00:48:52.426Z,7.90
2023-04-30T00:49:52.752Z,8.60
2023-04-30T00:50:52.394Z,8.90
2023-04-30T00:51:52.444Z,8.50
2023-04-30T00:52:52.367Z,8.50
2023-04-30T00:53:52.376Z,8.30
2023-04-30T00:54:52.346Z,7.80
2023-04-30T00:55:52.371Z,7.80
2023-04-30T00:56:52.350Z,8.40
2023-04-30T00:57:52.331Z,7.10
2023-04-30T00:58:52.309Z,6.90
2023-04-30T00:59:52.464Z,7.50
2023-04-30T01:00:52.325Z,7.70
2023-04-30T01:01:52.318Z,6.80
2023-04-30T01:02:52.333Z,7.30
2023-04-30T01:03:52.270Z,6.90
2023-04-30T01:04:52.239Z,7.40
2023-04-30T01:05:52.243Z,7.10
2023-04-30T01:06:52.228Z,7.70
2023-04-30T01:07:52.254Z,7.30
2023-04-30T01:08:52.190Z,6.70
2023-04-30T01:09:52.445Z,8.10
2023-04-30T01:10:52.173Z,7.50
2023-04-30T01:11:52.209Z,7.40
2023-04-30T01:12:52.158Z,8.40
2023-04-30T01:13:52.155Z,7.50
2023-04-30T01:14:52.135Z,6.50
2023-04-30T01:15:52.163Z,7.50
2023-04-30T01:16:52.105Z,8.50
2023-04-30T01:17:52.253Z,7.30
2023-04-30T01:18:52.223Z,7.00
2023-04-30T01:19:52.423Z,7.70
2023-04-30T01:20:52.072Z,9.00
2023-04-30T01:21:52.064Z,8.50
2023-04-30T01:22:52.047Z,7.00
2023-04-30T01:23:52.077Z,8.20
2023-04-30T01:24:52.017Z,7.80
2023-04-30T01:25:52.043Z,7.90
2023-04-30T01:26:51.996Z,6.90
2023-04-30T01:27:52.010Z,8.70
2023-04-30T01:28:51.974Z,7.20
2023-04-30T01:29:52.219Z,7.00
2023-04-30T01:30:52.037Z,9.80
2023-04-30T01:31:52.008Z,9.10
2023-04-30T01:32:51.991Z,7.70
2023-04-30T01:33:51.934Z,8.90
2023-04-30T01:34:51.900Z,8.20
2023-04-30T01:35:51.917Z,7.70
2023-04-30T01:36:51.891Z,8.00
2023-04-30T01:37:51.891Z,7.10
2023-04-30T01:38:51.874Z,7.90
2023-04-30T01:39:51.930Z,7.60
2023-04-30T01:40:51.860Z,9.10
2023-04-30T01:41:51.861Z,7.90
2023-04-30T01:42:51.824Z,10.10
2023-04-30T01:43:51.856Z,7.40
2023-04-30T01:44:51.817Z,7.60
2023-04-30T01:45:51.836Z,8.30
2023-04-30T01:46:51.779Z,8.50
2023-04-30T01:47:51.812Z,9.00
2023-04-30T01:48:51.760Z,8.40
2023-04-30T01:49:51.933Z,8.20
2023-04-30T01:50:51.750Z,9.00
2023-04-30T01:51:51.742Z,7.00
2023-04-30T01:52:51.736Z,7.60
2023-04-30T01:53:51.728Z,9.80
2023-04-30T01:54:51.698Z,7.30
2023-04-30T01:55:51.727Z,11.40
2023-04-30T01:56:51.674Z,7.00
2023-04-30T01:57:51.686Z,9.00
2023-04-30T01:58:51.653Z,8.00
2023-04-30T01:59:51.762Z,7.60
2023-04-30T02:00:51.643Z,7.20
2023-04-30T02:01:51.685Z,6.40
2023-04-30T02:02:51.671Z,8.30
2023-04-30T02:03:51.976Z,7.40
2023-04-30T02:04:51.587Z,7.90
2023-04-30T02:05:51.598Z,9.00
2023-04-30T02:06:51.568Z,8.60
2023-04-30T02:07:51.584Z,11.60
2023-04-30T02:08:51.554Z,10.00
2023-04-30T02:09:51.776Z,11.60
2023-04-30T02:10:51.543Z,11.80
2023-04-30T02:11:51.542Z,8.30
2023-04-30T02:12:51.504Z,11.00
2023-04-30T02:13:51.524Z,11.00
2023-04-30T02:14:51.476Z,11.70
2023-04-30T02:15:51.483Z,9.60
2023-04-30T02:16:51.474Z,10.10
2023-04-30T02:17:51.476Z,8.00
2023-04-30T02:18:51.430Z,10.00
2023-04-30T02:19:51.468Z,8.80
2023-04-30T02:20:51.407Z,9.10
2023-04-30T02:21:51.424Z,9.20
2023-04-30T02:22:51.397Z,8.10
2023-04-30T02:23:51.405Z,8.80
2023-04-30T02:24:51.363Z,8.80
2023-04-30T02:25:51.373Z,8.70
2023-04-30T02:26:51.355Z,8.20
2023-04-30T02:27:51.347Z,9.00
2023-04-30T02:28:51.352Z,8.10
2023-04-30T02:29:51.370Z,8.20
2023-04-30T02:30:51.327Z,8.40
2023-04-30T02:31:51.374Z,9.80
2023-04-30T02:32:51.364Z,7.70
2023-04-30T02:33:51.265Z,8.60
2023-04-30T02:34:51.303Z,8.50
2023-04-30T02:35:51.246Z,7.70
2023-04-30T02:36:51.248Z,9.10
2023-04-30T02:37:51.226Z,8.20
2023-04-30T02:38:51.228Z,8.50
2023-04-30T02:39:51.224Z,7.80
2023-04-30T02:40:51.220Z,8.30
2023-04-30T02:41:51.176Z,8.80
2023-04-30T02:42:51.180Z,9.90
2023-04-30T02:43:51.166Z,9.10
2023-04-30T02:44:51.194Z,10.00
2023-04-30T02:45:51.188Z,7.70
2023-04-30T02:46:51.144Z,10.80
2023-04-30T02:47:51.130Z,8.10
2023-04-30T02:48:51.133Z,8.30
2023-04-30T02:49:51.100Z,10.20
2023-04-30T02:50:51.114Z,10.20
2023-04-30T02:51:51.083Z,8.10
2023-04-30T02:52:51.104Z,10.30
2023-04-30T02:53:51.080Z,10.40
2023-04-30T02:54:51.048Z,8.10
2023-04-30T02:55:51.033Z,9.30
2023-04-30T02:56:51.042Z,6.40
2023-04-30T02:57:51.004Z,10.50
2023-04-30T02:58:51.007Z,9.70
2023-04-30T02:59:50.993Z,10.30
2023-04-30T03:00:51.017Z,9.50
2023-04-30T03:01:51.018Z,8.80
2023-04-30T03:02:51.033Z,10.10
2023-04-30T03:03:50.940Z,9.60
2023-04-30T03:04:50.941Z,9.30
2023-04-30T03:05:50.911Z,8.10
2023-04-30T03:06:50.915Z,8.80
2023-04-30T03:07:50.904Z,8.00
2023-04-30T03:08:50.916Z,10.00
2023-04-30T03:09:50.874Z,9.10
2023-04-30T03:10:50.877Z,9.10
2023-04-30T03:11:50.856Z,10.90
2023-04-30T03:12:50.862Z,8.90
2023-04-30T03:13:50.831Z,8.80
2023-04-30T03:14:50.833Z,8.80
2023-04-30T03:15:50.864Z,10.20
2023-04-30T03:16:50.825Z,9.70
2023-04-30T03:17:50.796Z,8.40
2023-04-30T03:18:50.789Z,8.70
2023-04-30T03:19:50.766Z,8.60
2023-04-30T03:20:50.783Z,9.30
2023-04-30T03:21:50.760Z,7.70
2023-04-30T03:22:50.774Z,8.80
2023-04-30T03:23:50.752Z,9.30
2023-04-30T03:24:50.744Z,8.20
2023-04-30T03:25:50.704Z,9.30
2023-04-30T03:26:50.666Z,11.30
2023-04-30T03:27:50.690Z,7.90
2023-04-30T03:28:50.687Z,8.10
2023-04-30T03:29:50.631Z,9.90
2023-04-30T03:30:50.625Z,9.20
2023-04-30T03:31:50.671Z,10.10
2023-04-30T03:32:50.725Z,8.90
2023-04-30T03:33:50.677Z,9.30
2023-04-30T03:34:50.632Z,9.60
2023-04-30T03:35:50.605Z,14.70
2023-04-30T03:36:50.564Z,8.20
2023-04-30T03:37:50.572Z,9.80
2023-04-30T03:38:50.605Z,10.40
2023-04-30T03:39:50.509Z,10.30
2023-04-30T03:40:50.518Z,8.40
2023-04-30T03:41:50.491Z,8.50
2023-04-30T03:42:51.454Z,8.20
2023-04-30T03:43:50.465Z,8.90
2023-04-30T03:44:50.478Z,8.90
2023-04-30T03:45:50.451Z,10.50
2023-04-30T03:46:50.448Z,10.00
2023-04-30T03:47:50.496Z,10.50
2023-04-30T03:48:50.418Z,13.00
2023-04-30T03:49:50.389Z,10.60
2023-04-30T03:50:50.415Z,9.10
2023-04-30T03:51:50.369Z,10.20
2023-04-30T03:52:50.389Z,10.40
2023-04-30T03:53:50.361Z,8.20
2023-04-30T03:54:50.359Z,10.20
2023-04-30T03:55:50.327Z,9.40
2023-04-30T03:56:50.347Z,8.50
2023-04-30T03:57:50.313Z,11.20
2023-04-30T03:58:50.324Z,9.20
2023-04-30T03:59:50.297Z,8.80
2023-04-30T04:00:50.287Z,10.00
2023-04-30T04:01:50.302Z,11.30
2023-04-30T04:02:50.317Z,8.40
2023-04-30T04:03:50.270Z,10.00
2023-04-30T04:04:50.246Z,10.00
2023-04-30T04:05:50.230Z,8.80
2023-04-30T04:06:50.236Z,9.00
2023-04-30T04:09:01.064Z,8.80
2023-04-30T04:10:02.035Z,10.00
2023-04-30T04:11:02.028Z,8.60
2023-04-30T04:12:01.996Z,8.60
2023-04-30T04:13:02.001Z,8.80
2023-04-30T04:14:01.976Z,8.60
2023-04-30T04:15:01.980Z,9.20
2023-04-30T04:16:02.024Z,9.90
2023-04-30T04:17:01.986Z,10.80
2023-04-30T04:18:01.990Z,8.60
2023-04-30T04:19:01.952Z,8.70
2023-04-30T04:20:01.927Z,9.70
2023-04-30T04:21:01.919Z,9.90
2023-04-30T04:22:01.885Z,11.40
2023-04-30T04:23:01.909Z,9.60
2023-04-30T04:24:01.863Z,9.30
2023-04-30T04:25:01.876Z,7.90
2023-04-30T04:26:01.864Z,10.80
2023-04-30T04:27:01.867Z,8.20
2023-04-30T04:28:01.827Z,9.70
2023-04-30T04:29:01.857Z,9.70
2023-04-30T04:30:01.803Z,9.60
2023-04-30T04:31:01.807Z,11.00
2023-04-30T04:32:01.832Z,9.30
2023-04-30T04:33:01.872Z,8.50
2023-04-30T04:34:01.761Z,8.40
2023-04-30T04:35:01.784Z,10.20
2023-04-30T04:36:01.751Z,7.90
2023-04-30T04:37:01.760Z,8.50
2023-04-30T04:38:01.711Z,10.30
2023-04-30T04:39:01.745Z,9.40
2023-04-30T04:40:01.690Z,10.00
2023-04-30T04:41:01.696Z,8.50
2023-04-30T04:42:01.670Z,8.90
2023-04-30T04:43:01.691Z,8.90
2023-04-30T04:44:01.663Z,9.40
2023-04-30T04:45:01.667Z,11.60
2023-04-30T04:46:00.658Z,9.50
2023-04-30T04:47:01.633Z,10.40
2023-04-30T04:48:01.668Z,9.10
2023-04-30T04:49:01.677Z,9.80
2023-04-30T04:50:01.585Z,9.40
2023-04-30T04:51:01.611Z,12.60
2023-04-30T04:52:01.557Z,12.40
2023-04-30T04:53:01.581Z,11.40
2023-04-30T04:54:01.540Z,8.80
2023-04-30T04:55:01.548Z,9.40
2023-04-30T04:56:01.525Z,9.90
2023-04-30T04:57:01.543Z,8.50
2023-04-30T04:58:01.498Z,9.10
2023-04-30T04:59:01.511Z,12.10
2023-04-30T05:00:01.524Z,9.10
2023-04-30T05:01:01.513Z,9.50
2023-04-30T05:02:01.535Z,11.50
2023-04-30T05:03:01.520Z,10.30
2023-04-30T05:04:01.589Z,10.50
2023-04-30T05:05:01.455Z,12.80
2023-04-30T05:06:01.495Z,8.70
2023-04-30T05:07:01.434Z,9.50
2023-04-30T05:08:01.430Z,10.70
2023-04-30T05:09:01.388Z,11.10
2023-04-30T05:10:01.397Z,10.50
2023-04-30T05:11:01.444Z,10.90
2023-04-30T05:12:01.362Z,9.90
2023-04-30T05:13:01.405Z,10.00
2023-04-30T05:14:01.363Z,9.70
2023-04-30T05:15:01.370Z,9.30
2023-04-30T05:16:01.329Z,11.30
2023-04-30T05:17:01.358Z,9.60
2023-04-30T05:18:01.371Z,10.70
2023-04-30T05:19:01.300Z,11.20
2023-04-30T05:20:01.265Z,10.10
2023-04-30T05:21:01.274Z,9.40
2023-04-30T05:22:01.247Z,8.60
2023-04-30T05:23:01.268Z,10.20
2023-04-30T05:24:01.231Z,8.60
2023-04-30T05:25:01.262Z,10.70
2023-04-30T05:26:01.204Z,11.40
2023-04-30T05:27:01.225Z,16.40
2023-04-30T05:28:01.200Z,18.90
2023-04-30T05:29:01.199Z,21.00
2023-04-30T05:30:01.172Z,25.00
2023-04-30T05:31:01.202Z,22.70
2023-04-30T05:32:01.194Z,17.20
2023-04-30T05:33:01.207Z,20.20
2023-04-30T05:34:01.127Z,15.30
2023-04-30T05:35:01.119Z,16.20
2023-04-30T05:36:01.102Z,15.10
2023-04-30T05:37:01.094Z,11.50
2023-04-30T05:38:01.084Z,11.00
2023-04-30T05:39:01.101Z,12.30
2023-04-30T05:40:01.051Z,9.30
2023-04-30T05:41:01.176Z,9.90
2023-04-30T05:42:01.075Z,8.20
2023-04-30T05:43:01.050Z,9.90
2023-04-30T05:44:01.043Z,9.70
2023-04-30T05:45:01.034Z,10.80
2023-04-30T05:46:01.103Z,10.40
2023-04-30T05:47:00.992Z,8.30
2023-04-30T05:48:01.003Z,12.40
2023-04-30T05:49:01.006Z,8.10
2023-04-30T05:50:00.943Z,8.70
2023-04-30T05:51:00.970Z,9.60
2023-04-30T05:52:00.946Z,8.70
2023-04-30T05:53:00.975Z,10.40
2023-04-30T05:54:00.919Z,9.80
2023-04-30T05:55:00.911Z,9.30
2023-04-30T05:56:00.885Z,8.30
2023-04-30T05:57:00.899Z,11.30
2023-04-30T05:58:00.855Z,7.80
2023-04-30T05:59:00.865Z,9.70
2023-04-30T06:00:00.840Z,8.90
2023-04-30T06:01:00.868Z,9.40
2023-04-30T06:02:00.872Z,10.70
2023-04-30T06:03:00.912Z,9.10
2023-04-30T06:04:00.806Z,9.60
2023-04-30T06:05:00.850Z,10.50
2023-04-30T06:06:00.805Z,10.30
2023-04-30T06:07:00.797Z,8.80
2023-04-30T06:08:00.941Z,11.30
2023-04-30T06:09:00.855Z,8.00
2023-04-30T06:10:00.744Z,8.80
2023-04-30T06:11:00.748Z,9.00
2023-04-30T06:12:00.726Z,8.30
2023-04-30T06:13:00.744Z,9.80
2023-04-30T06:14:00.724Z,7.40
2023-04-30T06:15:00.712Z,9.30
2023-04-30T06:16:00.710Z,9.70
2023-04-30T06:17:00.783Z,8.90
2023-04-30T06:18:00.735Z,9.10
2023-04-30T06:19:00.684Z,8.80
2023-04-30T06:20:00.631Z,9.30
2023-04-30T06:21:00.658Z,9.40
2023-04-30T06:22:00.609Z,9.70
2023-04-30T06:23:00.647Z,9.10
2023-04-30T06:24:00.634Z,8.40
2023-04-30T06:25:00.621Z,9.40
2023-04-30T06:26:00.564Z,11.90
2023-04-30T06:27:00.628Z,11.70
2023-04-30T06:28:00.544Z,8.90
2023-04-30T06:29:00.555Z,10.00
2023-04-30T06:30:00.535Z,9.20
2023-04-30T06:31:00.562Z,11.40
2023-04-30T06:32:00.514Z,9.60
2023-04-30T06:33:00.550Z,9.10
2023-04-30T06:34:00.494Z,8.50
2023-04-30T06:35:00.491Z,9.00
2023-04-30T06:36:00.506Z,8.80
2023-04-30T06:37:00.451Z,7.10
2023-04-30T06:38:00.460Z,8.20
2023-04-30T06:39:00.456Z,8.60
2023-04-30T06:40:00.454Z,11.40
2023-04-30T06:41:00.411Z,11.50
2023-04-30T06:42:00.413Z,9.50
2023-04-30T06:43:00.383Z,9.00
2023-04-30T06:44:00.406Z,7.50
2023-04-30T06:45:00.366Z,7.70
2023-04-30T06:46:00.423Z,8.00
2023-04-30T06:47:00.361Z,7.60
2023-04-30T06:48:00.560Z,8.00
2023-04-30T06:49:00.323Z,8.30
2023-04-30T06:50:00.326Z,11.30
2023-04-30T06:51:00.325Z,8.80
2023-04-30T06:52:00.318Z,7.90
2023-04-30T06:53:00.276Z,8.00
2023-04-30T06:54:00.283Z,9.10
2023-04-30T06:55:00.261Z,8.80
2023-04-30T06:56:00.269Z,7.80
2023-04-30T06:57:00.227Z,8.20
2023-04-30T06:58:00.249Z,8.00
2023-04-30T06:59:00.212Z,7.60
2023-04-30T07:00:00.239Z,8.00
2023-04-30T07:01:00.261Z,8.70
2023-04-30T07:02:00.277Z,7.90
2023-04-30T07:03:00.276Z,7.60
2023-04-30T07:04:00.282Z,7.30
2023-04-30T07:05:00.157Z,8.00
2023-04-30T07:06:00.308Z,8.40
2023-04-30T07:07:00.157Z,7.80
2023-04-30T07:08:00.148Z,7.10
2023-04-30T07:09:00.104Z,10.80
2023-04-30T07:10:00.138Z,8.60
2023-04-30T07:11:00.088Z,8.60
2023-04-30T07:12:00.125Z,6.90
2023-04-30T07:13:00.052Z,7.30
2023-04-30T07:14:00.072Z,8.60
2023-04-30T07:15:00.044Z,9.30
2023-04-30T07:16:00.117Z,7.80
2023-04-30T07:17:00.029Z,7.70
2023-04-30T07:18:00.091Z,9.10
2023-04-30T07:19:00.039Z,9.40
2023-04-30T07:20:00.025Z,6.60
2023-04-30T07:20:59.963Z,7.40
2023-04-30T07:21:59.994Z,8.10
2023-04-30T07:22:59.963Z,6.60
2023-04-30T07:24:00.826Z,7.00
2023-04-30T07:24:59.944Z,7.80
2023-04-30T07:25:59.968Z,7.80
2023-04-30T07:26:59.931Z,6.10
2023-04-30T07:27:59.916Z,8.10
2023-04-30T07:28:59.882Z,7.10
2023-04-30T07:29:59.901Z,7.00
2023-04-30T07:30:59.893Z,6.30
2023-04-30T07:31:59.924Z,6.30
2023-04-30T07:32:59.946Z,7.40
2023-04-30T07:33:59.846Z,7.30
2023-04-30T07:34:59.851Z,7.10
2023-04-30T07:35:59.825Z,6.80
2023-04-30T07:36:59.814Z,8.90
2023-04-30T07:37:59.830Z,6.60
2023-04-30T07:38:59.806Z,6.10
2023-04-30T07:39:59.804Z,7.00
2023-04-30T07:40:59.752Z,7.20
2023-04-30T07:41:59.778Z,6.50
2023-04-30T07:42:59.765Z,7.10
2023-04-30T07:43:59.781Z,7.80
2023-04-30T07:44:59.721Z,9.00
2023-04-30T07:45:59.748Z,10.90
2023-04-30T07:46:59.698Z,11.80
2023-04-30T07:47:59.737Z,9.70
2023-04-30T07:48:59.678Z,6.40
2023-04-30T07:49:59.688Z,6.60
2023-04-30T07:50:59.677Z,9.20
2023-04-30T07:51:59.668Z,6.10
2023-04-30T07:52:59.630Z,7.20
2023-04-30T07:53:59.647Z,6.90
2023-04-30T07:54:59.637Z,8.40
2023-04-30T07:55:59.650Z,8.50
2023-04-30T07:56:59.605Z,5.50
2023-04-30T07:57:59.600Z,8.00
2023-04-30T07:58:59.576Z,6.40
2023-04-30T07:59:59.582Z,5.90
2023-04-30T08:00:59.565Z,5.40
2023-04-30T08:01:59.597Z,4.60
2023-04-30T08:02:59.561Z,5.90
2023-04-30T08:03:59.605Z,7.10
2023-04-30T08:04:59.502Z,6.20
2023-04-30T08:05:59.572Z,5.20
2023-04-30T08:06:59.480Z,7.00
2023-04-30T08:07:59.520Z,6.10
2023-04-30T08:08:59.522Z,5.80
2023-04-30T08:09:59.459Z,5.20
2023-04-30T08:10:59.462Z,6.60
2023-04-30T08:11:59.443Z,5.40
2023-04-30T08:12:59.427Z,5.20
2023-04-30T08:13:59.439Z,5.10
2023-04-30T08:14:59.394Z,7.20
2023-04-30T08:15:59.408Z,6.40
2023-04-30T08:16:59.479Z,7.20
2023-04-30T08:17:59.480Z,4.50
2023-04-30T08:18:59.379Z,5.00
2023-04-30T08:19:59.361Z,5.50
2023-04-30T08:20:59.353Z,7.50
2023-04-30T08:21:59.376Z,5.80
2023-04-30T08:22:59.325Z,5.20
2023-04-30T08:23:59.376Z,5.40
2023-04-30T08:24:59.296Z,6.80
2023-04-30T08:25:59.344Z,6.40
2023-04-30T08:26:59.351Z,6.40
2023-04-30T08:27:59.391Z,5.50
2023-04-30T08:28:59.300Z,7.00
2023-04-30T08:29:59.292Z,7.00
2023-04-30T08:30:59.226Z,4.40
2023-04-30T08:31:59.308Z,6.60
2023-04-30T08:32:59.261Z,5.60
2023-04-30T08:33:59.236Z,4.70
2023-04-30T08:34:59.190Z,6.00
2023-04-30T08:35:59.193Z,5.40
2023-04-30T08:36:59.168Z,4.00
2023-04-30T08:37:59.180Z,5.40
2023-04-30T08:38:59.155Z,5.10
2023-04-30T08:39:59.175Z,4.40
2023-04-30T08:40:59.112Z,5.90
2023-04-30T08:41:59.140Z,4.80
2023-04-30T08:42:59.110Z,6.30
2023-04-30T08:43:59.157Z,5.80
2023-04-30T08:44:59.079Z,5.50
2023-04-30T08:45:59.145Z,4.60
2023-04-30T08:46:59.052Z,4.60
2023-04-30T08:47:59.109Z,4.50
2023-04-30T08:48:59.050Z,5.90
2023-04-30T08:49:59.042Z,4.60
2023-04-30T08:50:59.048Z,5.70
2023-04-30T08:51:59.018Z,6.00
2023-04-30T08:52:58.996Z,6.90
2023-04-30T08:53:59.007Z,4.60
2023-04-30T08:54:59.001Z,5.00
2023-04-30T08:55:58.984Z,5.80
2023-04-30T08:56:58.960Z,5.50
2023-04-30T08:57:58.963Z,5.10
2023-04-30T08:58:58.966Z,4.40
2023-04-30T08:59:58.936Z,5.10
2023-04-30T09:00:58.920Z,4.90
2023-04-30T09:01:59.015Z,4.80
2023-04-30T09:02:58.991Z,4.30
2023-04-30T09:03:59.005Z,5.10
2023-04-30T09:04:58.888Z,5.20
2023-04-30T09:05:58.903Z,4.90
2023-04-30T09:06:58.877Z,5.10
2023-04-30T09:08:03.709Z,5.40
2023-04-30T09:08:58.882Z,5.40
2023-04-30T09:09:58.885Z,5.70
2023-04-30T09:10:58.794Z,4.00
2023-04-30T09:11:58.822Z,4.20
2023-04-30T09:12:58.800Z,3.90
2023-04-30T09:13:58.789Z,4.20
2023-04-30T09:14:58.767Z,6.60
2023-04-30T09:15:58.844Z,5.80
2023-04-30T09:16:58.740Z,4.20
2023-04-30T09:17:58.841Z,5.10
2023-04-30T09:18:58.715Z,5.10
2023-04-30T09:19:58.734Z,4.50
2023-04-30T09:20:58.721Z,3.80
2023-04-30T09:21:58.703Z,5.10
2023-04-30T09:22:58.692Z,4.40
2023-04-30T09:23:58.698Z,6.90
2023-04-30T09:24:58.658Z,5.20
2023-04-30T09:25:58.717Z,4.30
2023-04-30T09:26:58.631Z,5.30
2023-04-30T09:27:58.650Z,4.30
2023-04-30T09:28:58.609Z,5.60
2023-04-30T09:29:58.624Z,4.70
2023-04-30T09:30:58.615Z,4.10
2023-04-30T09:31:58.710Z,5.50
2023-04-30T09:32:58.604Z,4.70
2023-04-30T09:33:58.580Z,5.10
2023-04-30T09:34:58.561Z,5.30
2023-04-30T09:35:58.565Z,5.30
2023-04-30T09:36:58.545Z,4.00
2023-04-30T09:37:58.543Z,4.40
2023-04-30T09:38:58.522Z,3.70
2023-04-30T09:39:58.532Z,3.10
2023-04-30T09:40:58.484Z,4.10
2023-04-30T09:41:58.501Z,4.60
2023-04-30T09:42:58.601Z,5.00
2023-04-30T09:43:58.516Z,5.00
2023-04-30T09:44:58.458Z,3.40
2023-04-30T09:45:58.469Z,5.10
2023-04-30T09:46:58.506Z,4.20
2023-04-30T09:48:09.026Z,4.30
2023-04-30T09:48:58.425Z,3.30
2023-04-30T09:49:58.515Z,4.60
2023-04-30T09:50:58.414Z,3.40
2023-04-30T09:51:58.397Z,5.20
2023-04-30T09:52:58.418Z,4.20
2023-04-30T09:53:58.383Z,3.20
2023-04-30T09:54:58.370Z,3.50
2023-04-30T09:55:58.533Z,4.00
2023-04-30T09:56:58.361Z,4.10
2023-04-30T09:57:58.374Z,3.50
2023-04-30T09:58:58.323Z,4.00
2023-04-30T09:59:58.477Z,3.30
2023-04-30T10:00:58.410Z,3.80
2023-04-30T10:01:58.311Z,3.80
2023-04-30T10:02:58.282Z,3.90
2023-04-30T10:03:58.317Z,3.90
2023-04-30T10:04:58.363Z,3.80
2023-04-30T10:05:58.320Z,4.10
2023-04-30T10:06:58.228Z,4.20
2023-04-30T10:07:58.280Z,4.30
2023-04-30T10:08:58.217Z,5.10
2023-04-30T10:09:58.242Z,4.80
2023-04-30T10:10:58.185Z,3.50
2023-04-30T10:11:58.195Z,4.10
2023-04-30T10:12:58.188Z,3.30
2023-04-30T10:13:58.210Z,6.40
2023-04-30T10:14:58.197Z,5.00
2023-04-30T10:15:58.175Z,4.40
2023-04-30T10:16:58.226Z,4.10
2023-04-30T10:17:58.219Z,6.80
2023-04-30T10:18:58.134Z,4.30
2023-04-30T10:19:58.120Z,3.80
2023-04-30T10:20:58.095Z,4.30
2023-04-30T10:21:58.111Z,3.10
2023-04-30T10:22:58.078Z,5.40
2023-04-30T10:23:58.081Z,5.70
2023-04-30T10:24:58.043Z,4.10
2023-04-30T10:25:58.071Z,4.10
2023-04-30T10:26:58.014Z,4.80
2023-04-30T10:27:58.170Z,3.30
2023-04-30T10:28:58.033Z,4.20
2023-04-30T10:29:58.292Z,3.20
2023-04-30T10:30:58.008Z,3.10
2023-04-30T10:31:58.056Z,6.30
2023-04-30T10:32:58.149Z,4.20
2023-04-30T10:33:57.970Z,3.60
2023-04-30T10:34:57.968Z,3.20
2023-04-30T10:35:57.979Z,4.20
2023-04-30T10:36:57.929Z,4.50
2023-04-30T10:37:57.936Z,3.20
2023-04-30T10:38:57.931Z,3.40
2023-04-30T10:39:57.920Z,3.80
2023-04-30T10:40:57.889Z,3.60
2023-04-30T10:41:57.915Z,3.90
2023-04-30T10:42:57.870Z,3.30
2023-04-30T10:43:59.047Z,4.10
2023-04-30T10:44:57.851Z,3.40
2023-04-30T10:45:57.894Z,4.30
2023-04-30T10:46:57.829Z,3.10
2023-04-30T10:47:57.870Z,5.40
2023-04-30T10:48:57.838Z,2.70
2023-04-30T10:49:57.799Z,3.60
2023-04-30T10:50:57.822Z,3.80
2023-04-30T10:51:57.772Z,3.70
2023-04-30T10:52:57.794Z,3.20
2023-04-30T10:53:57.756Z,3.30
2023-04-30T10:54:57.809Z,4.20
2023-04-30T10:55:57.751Z,3.70
2023-04-30T10:56:57.761Z,3.20
2023-04-30T10:57:57.708Z,4.20
2023-04-30T10:58:57.717Z,3.50
2023-04-30T10:59:57.825Z,4.10
2023-04-30T11:00:57.741Z,4.50
2023-04-30T11:01:57.747Z,4.40
2023-04-30T11:02:57.732Z,3.80
2023-04-30T11:03:57.658Z,3.20
2023-04-30T11:04:57.748Z,3.50
2023-04-30T11:05:57.691Z,2.70
2023-04-30T11:06:57.657Z,3.00
2023-04-30T11:07:57.636Z,2.70
2023-04-30T11:08:57.641Z,3.60
2023-04-30T11:09:57.880Z,2.70
2023-04-30T11:10:57.610Z,3.30
2023-04-30T11:11:57.577Z,4.00
2023-04-30T11:12:58.611Z,3.00
2023-04-30T11:13:57.561Z,2.50
2023-04-30T11:14:57.568Z,2.50
2023-04-30T11:15:57.601Z,3.20
2023-04-30T11:16:57.527Z,3.20
2023-04-30T11:17:57.519Z,2.40
2023-04-30T11:18:57.528Z,2.40
2023-04-30T11:19:57.621Z,2.60
2023-04-30T11:20:57.497Z,3.00
2023-04-30T11:21:57.477Z,3.30
2023-04-30T11:22:57.504Z,2.90
2023-04-30T11:23:57.445Z,3.60
2023-04-30T11:24:57.491Z,2.90
2023-04-30T11:25:57.441Z,2.20
2023-04-30T11:26:57.433Z,2.80
2023-04-30T11:27:57.445Z,2.70
2023-04-30T11:28:57.438Z,3.40
2023-04-30T11:29:57.730Z,2.90
2023-04-30T11:30:57.507Z,2.70
2023-04-30T11:31:57.414Z,2.10
2023-04-30T11:32:57.463Z,2.70
2023-04-30T11:33:57.375Z,2.70
2023-04-30T11:34:57.354Z,2.80
2023-04-30T11:35:57.351Z,2.60
2023-04-30T11:36:57.331Z,2.90
2023-04-30T11:37:57.314Z,4.20
2023-04-30T11:38:57.341Z,2.80
2023-04-30T11:39:57.337Z,5.90
2023-04-30T11:40:57.315Z,3.40
2023-04-30T11:41:57.270Z,3.80
2023-04-30T11:42:57.314Z,4.80
2023-04-30T11:43:57.257Z,4.40
2023-04-30T11:44:57.261Z,3.70
2023-04-30T11:45:57.223Z,3.90
2023-04-30T11:46:57.250Z,4.20
2023-04-30T11:47:57.253Z,3.90
2023-04-30T11:48:57.241Z,3.80
2023-04-30T11:49:57.412Z,4.00
2023-04-30T11:50:57.195Z,3.90
2023-04-30T11:51:57.163Z,2.70
2023-04-30T11:52:57.212Z,2.30
2023-04-30T11:53:57.176Z,3.00
2023-04-30T11:54:57.182Z,2.90
2023-04-30T11:55:57.150Z,2.30
2023-04-30T11:56:57.151Z,3.20
2023-04-30T11:57:57.098Z,2.50
2023-04-30T11:58:57.141Z,3.10
2023-04-30T11:59:57.196Z,4.90
2023-04-30T12:00:57.127Z,3.80
2023-04-30T12:01:57.122Z,3.80
2023-04-30T12:02:57.225Z,2.60
2023-04-30T12:03:57.132Z,3.20
2023-04-30T12:04:57.075Z,2.70
2023-04-30T12:05:57.091Z,3.90
2023-04-30T12:06:57.047Z,2.50
2023-04-30T12:07:57.007Z,3.40
2023-04-30T12:08:57.058Z,3.30
2023-04-30T12:09:57.354Z,2.80
2023-04-30T12:10:57.060Z,3.50
2023-04-30T12:11:56.971Z,3.10
2023-04-30T12:12:56.981Z,3.80
2023-04-30T12:13:56.966Z,2.00
2023-04-30T12:14:56.970Z,2.50
2023-04-30T12:15:56.944Z,3.30
2023-04-30T12:16:57.052Z,2.70
2023-04-30T12:17:56.968Z,2.30
2023-04-30T12:18:56.938Z,3.10
2023-04-30T12:19:57.042Z,2.60
2023-04-30T12:20:56.909Z,2.70
2023-04-30T12:21:56.874Z,2.90
2023-04-30T12:22:56.904Z,2.70
2023-04-30T12:23:56.849Z,3.00
2023-04-30T12:24:56.900Z,3.90
2023-04-30T12:25:56.823Z,3.10
2023-04-30T12:26:56.863Z,3.50
2023-04-30T12:27:56.873Z,3.00
2023-04-30T12:28:56.864Z,3.60
2023-04-30T12:29:57.085Z,4.90
2023-04-30T12:30:56.796Z,3.80
2023-04-30T12:31:56.796Z,3.00
2023-04-30T12:32:56.820Z,2.70
2023-04-30T12:33:56.754Z,3.60
2023-04-30T12:34:56.748Z,3.10
2023-04-30T12:35:56.741Z,4.10
2023-04-30T12:36:56.728Z,3.10
2023-04-30T12:37:56.707Z,2.90
2023-04-30T12:38:56.726Z,3.00
2023-04-30T12:39:57.038Z,3.10
2023-04-30T12:40:56.703Z,3.20
2023-04-30T12:41:56.660Z,2.40
2023-04-30T12:42:56.700Z,2.70
2023-04-30T12:43:56.645Z,3.50
2023-04-30T12:44:56.668Z,2.60
2023-04-30T12:45:56.640Z,3.00
2023-04-30T12:46:56.635Z,2.90
2023-04-30T12:47:56.646Z,3.00
2023-04-30T12:48:56.614Z,3.30
2023-04-30T12:49:56.727Z,2.70
2023-04-30T12:50:56.578Z,1.70
2023-04-30T12:51:56.554Z,2.90
2023-04-30T12:52:56.575Z,2.30
2023-04-30T12:53:56.569Z,2.90
2023-04-30T12:54:56.590Z,3.60
2023-04-30T12:55:56.526Z,4.50
2023-04-30T12:56:56.531Z,4.20
2023-04-30T12:57:56.500Z,2.50
2023-04-30T12:58:56.557Z,3.10
2023-04-30T12:59:56.960Z,2.60
2023-04-30T13:00:56.521Z,2.30
2023-04-30T13:01:56.634Z,2.70
2023-04-30T13:02:56.550Z,2.20
2023-04-30T13:03:56.535Z,2.60
2023-04-30T13:04:56.450Z,3.40
2023-04-30T13:05:56.436Z,3.20
2023-04-30T13:06:56.436Z,3.20
2023-04-30T13:07:56.404Z,2.50
2023-04-30T13:08:58.816Z,2.80
2023-04-30T13:09:56.655Z,3.20
2023-04-30T13:10:56.383Z,2.30
2023-04-30T13:11:56.372Z,2.60
2023-04-30T13:12:56.382Z,2.60
2023-04-30T13:13:56.357Z,3.60
2023-04-30T13:14:56.362Z,3.30
2023-04-30T13:15:56.336Z,2.50